Terminal Aerodrome Forecast
Issued by NWS Wilmington, OH

Current Version | Previous Version | Graphics & Text | Print | Product List | Glossary On
Versions: 1 2 3 4 5 6 7 8 9 10 11 12 13 14 15 16 17 18 19 20 21 22 23 24 25 26
000
FTUS41 KILN 172100 AAB
TAFILN
TAF AMD
KILN 172100Z 1721/1818 16004KT 3/4SM -SN BR VCSH OVC003
     FM180000 23006KT 5SM BR VCSH OVC006
     FM180600 27008KT P6SM BKN012
     FM181200 VRB03KT P6SM SCT016
     FM181600 16006KT P6SM SCT250=

USA.gov is the U.S. government's official web portal to all federal, state and local government web resources and services.